createdAt,value
2023-02-12T12:59:27.303Z,8.88
2023-02-12T13:00:38.100Z,7.05
2023-02-12T13:01:54.907Z,7.80
2023-02-12T13:03:05.354Z,8.95
2023-02-12T13:04:40.767Z,7.57
2023-02-12T13:05:51.231Z,7.30
2023-02-12T13:07:03.294Z,9.38
2023-02-12T13:08:33.811Z,8.35
2023-02-12T13:10:09.540Z,8.27
2023-02-12T13:11:33.367Z,6.57
2023-02-12T13:12:40.936Z,6.88
2023-02-12T13:13:47.292Z,7.90
2023-02-12T13:14:57.716Z,8.30
2023-02-12T13:16:21.619Z,7.78
2023-02-12T13:17:45.985Z,7.22
2023-02-12T13:19:29.375Z,7.25
2023-02-12T13:20:47.416Z,6.75
2023-02-12T13:21:58.916Z,6.60
2023-02-12T13:23:07.491Z,7.13
2023-02-12T13:24:30.171Z,6.65
2023-02-12T13:25:42.549Z,6.10
2023-02-12T13:26:53.021Z,6.80
2023-02-12T13:27:56.504Z,8.05
2023-02-12T13:29:09.893Z,6.60
2023-02-12T13:30:14.263Z,7.80
2023-02-12T13:31:35.736Z,8.43
2023-02-12T13:32:43.447Z,7.63
2023-02-12T13:33:50.290Z,6.68
2023-02-12T13:34:54.414Z,7.50
2023-02-12T13:36:00.290Z,6.55
2023-02-12T13:37:04.117Z,6.95
2023-02-12T13:38:08.683Z,6.45
2023-02-12T13:39:41.593Z,8.25
2023-02-12T13:40:43.210Z,6.70
2023-02-12T13:41:54.054Z,6.78
2023-02-12T13:43:00.032Z,6.07
2023-02-12T13:44:26.275Z,7.00
2023-02-12T13:45:33.607Z,7.70
2023-02-12T13:47:12.681Z,9.05
2023-02-12T13:48:32.659Z,9.10
2023-02-12T13:49:52.412Z,9.00
2023-02-12T13:51:01.350Z,9.20
2023-02-12T13:52:10.553Z,7.22
2023-02-12T13:53:22.905Z,7.20
2023-02-12T13:55:12.607Z,8.55
2023-02-12T13:56:29.052Z,6.65
2023-02-12T13:57:30.602Z,6.57
2023-02-12T13:58:35.052Z,5.75
2023-02-12T13:59:36.462Z,6.70
2023-02-12T14:00:50.644Z,7.05
2023-02-12T14:01:52.960Z,6.05
2023-02-12T14:02:54.452Z,6.30
2023-02-12T14:03:55.840Z,6.68
2023-02-12T14:05:01.225Z,6.50
2023-02-12T14:06:16.336Z,6.15
2023-02-12T14:07:19.462Z,6.80
2023-02-12T14:08:42.278Z,6.03
2023-02-12T14:09:59.785Z,6.45
2023-02-12T14:11:10.590Z,5.63
2023-02-12T14:12:27.267Z,6.07
2023-02-12T14:13:34.053Z,6.35
2023-02-12T14:14:40.742Z,5.78
2023-02-12T14:15:45.037Z,5.60
2023-02-12T14:16:46.666Z,6.10
2023-02-12T14:18:04.025Z,6.85
2023-02-12T14:20:03.265Z,6.15
2023-02-12T14:21:13.461Z,5.18
2023-02-12T14:22:35.041Z,7.05
2023-02-12T14:23:36.831Z,6.45
2023-02-12T14:24:38.163Z,5.88
2023-02-12T14:25:46.859Z,6.07
2023-02-12T14:26:48.484Z,6.88
2023-02-12T14:28:06.507Z,5.43
2023-02-12T14:29:21.098Z,4.50
2023-02-12T14:30:33.995Z,6.00
2023-02-12T14:31:37.656Z,5.68
2023-02-12T14:32:44.797Z,5.13
2023-02-12T14:33:48.940Z,6.05
2023-02-12T14:34:51.741Z,7.10
2023-02-12T14:36:32.188Z,5.55
2023-02-12T14:37:37.996Z,5.63
2023-02-12T14:38:47.384Z,5.50
2023-02-12T14:39:49.436Z,6.20
2023-02-12T14:40:52.564Z,5.65
2023-02-12T14:42:14.943Z,6.15
2023-02-12T14:43:56.823Z,5.18
2023-02-12T14:44:58.815Z,6.03
2023-02-12T14:46:22.094Z,5.70
2023-02-12T14:47:29.743Z,5.72
2023-02-12T14:48:52.207Z,5.03
2023-02-12T14:49:55.800Z,5.45
2023-02-12T14:50:57.664Z,5.28
2023-02-12T14:52:06.638Z,5.68
2023-02-12T14:53:35.364Z,5.20
2023-02-12T14:54:50.132Z,4.60
2023-02-12T14:55:52.490Z,5.15
2023-02-12T14:56:55.583Z,5.30
2023-02-12T14:58:00.256Z,6.03
2023-02-12T14:59:03.840Z,5.22
2023-02-12T15:00:23.743Z,5.97
2023-02-12T15:01:36.580Z,5.88
2023-02-12T15:02:41.703Z,5.10
2023-02-12T15:03:49.270Z,5.97
2023-02-12T15:04:52.933Z,4.85
2023-02-12T15:06:25.067Z,4.85
2023-02-12T15:07:37.222Z,5.97
2023-02-12T15:08:48.759Z,4.60
2023-02-12T15:10:15.353Z,4.88
2023-02-12T15:11:45.052Z,5.50
2023-02-12T15:12:57.856Z,5.00
2023-02-12T15:14:23.755Z,5.30
2023-02-12T15:15:33.824Z,5.53
2023-02-12T15:16:47.054Z,5.10
2023-02-12T15:17:59.218Z,4.88
2023-02-12T15:19:25.524Z,5.25
2023-02-12T15:20:37.538Z,5.28
2023-02-12T15:21:39.316Z,5.20
2023-02-12T15:22:41.245Z,4.90
2023-02-12T15:23:44.402Z,5.82
2023-02-12T15:24:47.014Z,5.15
2023-02-12T15:25:50.834Z,4.38
2023-02-12T15:26:58.126Z,4.97
2023-02-12T15:28:02.701Z,5.60
2023-02-12T15:29:04.710Z,5.10
2023-02-12T15:30:08.734Z,4.90
2023-02-12T15:31:16.825Z,4.45
2023-02-12T15:32:29.801Z,4.63
2023-02-12T15:33:33.896Z,4.30
2023-02-12T15:34:40.027Z,3.60
2023-02-12T15:35:45.115Z,4.35
2023-02-12T15:36:46.561Z,4.22
2023-02-12T15:37:49.559Z,4.32
2023-02-12T15:39:06.741Z,3.95
2023-02-12T15:40:14.827Z,4.13
2023-02-12T15:41:38.496Z,3.60
2023-02-12T15:42:42.415Z,3.45
2023-02-12T15:43:43.808Z,4.50
2023-02-12T15:44:45.210Z,3.45
2023-02-12T15:45:51.811Z,3.88
2023-02-12T15:46:58.465Z,3.85
2023-02-12T15:48:09.103Z,3.90
2023-02-12T15:49:22.188Z,3.90
2023-02-12T15:50:24.234Z,3.75
2023-02-12T15:51:41.474Z,3.47
2023-02-12T15:52:46.492Z,5.07
2023-02-12T15:53:48.220Z,3.50
2023-02-12T15:54:49.820Z,3.38
2023-02-12T15:55:52.031Z,3.92
2023-02-12T15:56:54.788Z,3.10
2023-02-12T15:57:59.913Z,3.78
2023-02-12T15:59:02.899Z,3.50
2023-02-12T16:00:09.613Z,3.63
2023-02-12T16:01:18.995Z,3.20
2023-02-12T16:02:29.951Z,2.80
2023-02-12T16:03:32.979Z,3.72
2023-02-12T16:04:40.534Z,2.95
2023-02-12T16:05:42.102Z,3.55
2023-02-12T16:06:43.701Z,2.53
2023-02-12T16:07:46.618Z,2.95
2023-02-12T16:09:17.906Z,2.63
2023-02-12T16:10:20.730Z,2.47
2023-02-12T16:11:24.069Z,3.10
2023-02-12T16:12:31.020Z,3.25
2023-02-12T16:13:34.743Z,3.53
2023-02-12T16:14:47.144Z,3.10
2023-02-12T16:16:04.680Z,3.38
2023-02-12T16:17:27.517Z,2.72
2023-02-12T16:18:29.170Z,2.92
2023-02-12T16:19:36.916Z,3.33
2023-02-12T16:20:38.378Z,3.15
2023-02-12T16:21:39.942Z,2.83
2023-02-12T16:22:44.136Z,2.83
2023-02-12T16:23:48.734Z,2.95
2023-02-12T16:24:52.436Z,3.20
2023-02-12T16:25:55.427Z,2.40
2023-02-12T16:27:01.877Z,3.28
2023-02-12T16:28:20.768Z,2.83
2023-02-12T16:29:22.220Z,2.85
2023-02-12T16:30:28.272Z,3.42
